Aeroporto :
LOGIN :

Iscrizione | Disclaimer

   EN    FR    IT 

 










Sommario :    VFR   VFR Marginale   IFR   IFR Intensivo   IFR Molto Intensivo
Visibilità : 
Base nubi : 
>= 8 km
>= 3000ft
5 / 8 km
1000 / 3000 ft
1500m / 5 km
500 / 1000 ft
800 / 1500m
200 / 500 ft
< 800m
< 200 ft
Simboli :   Temporali  Nebbia  Neve Forte  Precipitazioni Forti  Vento > 20 kt
SIGMETs :   Varie  Temporali  Ghiacco  Turbolenza  Onda orograficha  Ceneri Vulcaniche






- Altitudine del aeroporto : 37 ft


EHVL - Vlieland Heliport

ULTIMO METAR :
  • 131443Z AUTO 27013KT 9999 DZRA FEW011 SCT021 BKN025 16/14 Q1009 BLU

METARs OBSOLETI :
  • 131425Z AUTO 28012KT 9999 FEW008 SCT019 BKN026 16/14 Q1009 BLU
  • 131429Z AUTO 28012KT 9999 FEW008 BKN019 BKN025 16/13 Q1009 WHT
  • 131355Z AUTO 29012KT 9999 FEW010 BKN037 OVC093 16/14 Q1008 BLU
  • 131333Z AUTO 29014KT 9999 FEW017 SCT022 OVC039 17/14 Q1008 BLU
  • 131325Z AUTO 29016KT 250V310 9999 FEW009 SCT011 BKN013 17/14 Q1008 GRN
  • 131300Z AUTO 27018KT 9999 SCT011 SCT014 BKN037 17/14 Q1008 BLU
  • 131255Z AUTO 26018KT 9999 FEW011 SCT013 BKN020 18/14 Q1008 WHT
  • 131231Z AUTO 26016KT 9999 -RA BKN012 OVC016 16/14 Q1008 GRN
  • 131155Z AUTO 27012KT 9999 FEW011 SCT014 OVC110 18/14 Q1008 BLU
  • 131130Z AUTO 28012KT 9999 FEW011 SCT018 OVC110 18/14 Q1008 BLU
  • 131113Z AUTO 28011KT 9999 SCT010 BKN013 BKN018 18/15 Q1008 GRN
  • 131055Z AUTO 28012KT 9999 FEW009 SCT088 OVC100 17/14 Q1008 BLU
  • 131042Z AUTO 28010KT 9999 BKN010 BKN013 OVC083 17/14 Q1008 GRN
  • 131041Z AUTO 28010KT 9999 SCT010 SCT013 OVC082 17/14 Q1008 BLU
  • 131005Z AUTO 29011KT 9999 FEW009 SCT010 BKN068 16/14 Q1008 BLU

Previsioni scadute.



MetMap, La meteo Aeronautica in un colpo d'occhio ! - Copyright ORBIFLY Dicembre 2007 - Disclaimer

ORBIFLY MET'MAP TEAM :

Programmazione e sviluppo : Alexandra Zaïnal
Concezione : Baudouin d'Aumeries
Supporto tecnico e logistico : Manuel Goepfert
Aiuto : Marc-Olivier Méhu
Aiuto per la traduzione : Arnaldo La Scala




FONTI E CREDITI :

   NOAA